createdAt,value
2018-06-05T00:01:11.016Z,25.20
2018-06-05T00:03:48.385Z,25.33
2018-06-05T00:06:19.886Z,26.00
2018-06-05T00:08:51.909Z,31.08
2018-06-05T00:11:20.769Z,26.27
2018-06-05T00:13:58.661Z,27.02
2018-06-05T00:16:41.267Z,32.83
2018-06-05T00:19:11.737Z,29.25
2018-06-05T00:21:42.558Z,28.30
2018-06-05T00:24:13.808Z,28.08
2018-06-05T00:26:45.620Z,28.42
2018-06-05T00:29:16.034Z,30.17
2018-06-05T00:31:45.530Z,32.72
2018-06-05T00:34:14.606Z,29.27
2018-06-05T00:36:43.943Z,30.25
2018-06-05T00:39:13.649Z,27.80
2018-06-05T00:41:44.575Z,30.37
2018-06-05T00:44:13.972Z,30.45
2018-06-05T00:46:43.148Z,29.45
2018-06-05T00:49:12.477Z,37.70
2018-06-05T00:51:59.920Z,33.00
2018-06-05T00:54:29.658Z,30.88
2018-06-05T00:57:00.179Z,38.67
2018-06-05T00:59:34.276Z,41.50
2018-06-05T01:04:52.008Z,40.17
2018-06-05T01:07:22.431Z,41.13
2018-06-05T01:09:51.611Z,33.15
2018-06-05T01:12:22.836Z,32.20
2018-06-05T01:14:54.412Z,35.17
2018-06-05T01:17:23.428Z,33.63
2018-06-05T01:19:52.656Z,33.22
2018-06-05T01:25:17.266Z,34.95
2018-06-05T01:27:46.242Z,40.08
2018-06-05T01:30:15.271Z,38.03
2018-06-05T01:32:44.143Z,36.75
2018-06-05T01:35:14.293Z,39.00
2018-06-05T01:37:48.813Z,32.58
2018-06-05T01:40:19.383Z,41.57
2018-06-05T01:42:48.892Z,42.97
2018-06-05T01:45:19.754Z,40.00
2018-06-05T01:47:48.979Z,42.05
2018-06-05T01:50:17.954Z,41.08
2018-06-05T01:52:47.640Z,34.22
2018-06-05T01:55:16.935Z,41.60
2018-06-05T01:57:53.237Z,36.05
2018-06-05T02:00:27.242Z,33.97
2018-06-05T02:02:56.302Z,33.67
2018-06-05T02:05:34.866Z,34.47
2018-06-05T02:08:20.483Z,32.33
2018-06-05T02:10:52.872Z,38.10
2018-06-05T02:13:22.307Z,33.22
2018-06-05T02:15:52.353Z,32.42
2018-06-05T02:18:22.556Z,34.83
2018-06-05T02:20:51.835Z,39.67
2018-06-05T02:23:21.560Z,35.72
2018-06-05T02:25:50.961Z,38.05
2018-06-05T02:28:20.094Z,31.95
2018-06-05T02:30:49.392Z,35.83
2018-06-05T02:33:18.633Z,35.20
2018-06-05T02:35:48.980Z,37.33
2018-06-05T02:38:20.420Z,32.83
2018-06-05T02:40:50.101Z,37.97
2018-06-05T02:43:19.410Z,34.22
2018-06-05T02:45:49.227Z,33.28
2018-06-05T02:48:19.170Z,31.30
2018-06-05T02:50:48.295Z,32.08
2018-06-05T02:53:19.297Z,31.35
2018-06-05T02:55:50.588Z,30.52
2018-06-05T02:58:22.314Z,31.62
2018-06-05T03:00:52.431Z,34.00
2018-06-05T03:03:22.156Z,39.35
2018-06-05T03:05:52.209Z,33.75
2018-06-05T03:08:21.424Z,35.95
2018-06-05T03:10:53.196Z,36.63
2018-06-05T03:13:22.353Z,37.53
2018-06-05T03:15:51.460Z,38.50
2018-06-05T03:18:21.504Z,37.50
2018-06-05T03:20:50.747Z,36.88
2018-06-05T03:23:20.031Z,36.10
2018-06-05T03:25:50.548Z,38.22
2018-06-05T03:28:23.569Z,34.65
2018-06-05T03:30:53.031Z,35.67
2018-06-05T03:33:24.866Z,32.63
2018-06-05T03:35:56.378Z,34.38
2018-06-05T03:38:27.260Z,31.58
2018-06-05T03:40:58.347Z,38.65
2018-06-05T03:43:29.061Z,35.35
2018-06-05T03:45:58.420Z,34.50
2018-06-05T03:48:27.747Z,36.35
2018-06-05T03:50:57.240Z,32.97
2018-06-05T03:53:27.201Z,32.22
2018-06-05T03:55:58.944Z,33.00
2018-06-05T03:58:28.066Z,33.85
2018-06-05T04:01:07.709Z,35.95
2018-06-05T04:03:37.077Z,33.92
2018-06-05T04:06:06.472Z,33.28
2018-06-05T04:08:35.869Z,33.45
2018-06-05T04:11:05.214Z,35.53
2018-06-05T04:13:39.826Z,34.63
2018-06-05T04:16:09.255Z,29.15
2018-06-05T04:18:38.902Z,29.35
2018-06-05T04:21:08.493Z,29.50
2018-06-05T04:23:38.999Z,30.52
2018-06-05T04:26:12.241Z,30.27
2018-06-05T04:28:41.272Z,32.55
2018-06-05T04:31:11.618Z,28.50
2018-06-05T04:33:41.580Z,29.27
2018-06-05T04:36:11.830Z,30.00
2018-06-05T04:38:40.729Z,31.50
2018-06-05T04:41:20.391Z,29.12
2018-06-05T04:43:51.648Z,29.25
2018-06-05T04:46:28.155Z,29.45
2018-06-05T04:51:51.797Z,26.92
2018-06-05T04:54:20.917Z,25.80
2018-06-05T04:56:51.273Z,30.27
2018-06-05T04:59:20.270Z,26.05
2018-06-05T05:01:49.552Z,29.15
2018-06-05T05:04:18.561Z,26.83
2018-06-05T05:06:50.021Z,31.62
2018-06-05T05:09:18.813Z,32.15
2018-06-05T05:11:47.744Z,31.80
2018-06-05T05:14:17.125Z,31.60
2018-06-05T05:16:48.528Z,30.02
2018-06-05T05:19:24.806Z,27.95
2018-06-05T05:24:43.030Z,27.02
2018-06-05T05:27:23.848Z,36.38
2018-06-05T05:32:41.986Z,29.40
2018-06-05T05:35:17.060Z,26.37
2018-06-05T05:37:54.204Z,29.27
2018-06-05T05:40:24.182Z,27.65
2018-06-05T05:43:08.433Z,29.20
2018-06-05T05:48:27.965Z,25.37
2018-06-05T05:51:16.057Z,28.70
2018-06-05T05:56:33.583Z,23.25
2018-06-05T05:59:11.553Z,25.12
2018-06-05T06:01:50.282Z,24.23
2018-06-05T06:07:18.329Z,24.95
2018-06-05T06:12:51.172Z,29.92
2018-06-05T06:15:22.314Z,29.85
2018-06-05T06:17:56.180Z,27.55
2018-06-05T06:20:28.461Z,26.62
2018-06-05T06:23:02.162Z,33.70
2018-06-05T06:28:20.538Z,31.52
2018-06-05T06:33:44.510Z,20.98
2018-06-05T06:39:06.651Z,21.35
2018-06-05T06:41:40.045Z,23.75
2018-06-05T06:44:10.118Z,27.67
2018-06-05T06:46:58.288Z,29.20
2018-06-05T06:49:29.481Z,26.73
2018-06-05T06:54:55.868Z,37.03
2018-06-05T07:00:31.612Z,31.00
2018-06-05T07:03:00.536Z,31.02
2018-06-05T07:08:30.773Z,25.45
2018-06-05T07:11:00.682Z,25.52
2018-06-05T07:13:35.314Z,27.20
2018-06-05T07:16:07.528Z,26.00
2018-06-05T07:18:39.895Z,25.88
2018-06-05T07:21:14.377Z,27.00
2018-06-05T07:23:46.338Z,28.00
2018-06-05T07:26:23.361Z,27.25
2018-06-05T07:28:54.403Z,23.85
2018-06-05T07:34:15.598Z,24.55
2018-06-05T07:39:33.692Z,26.98
2018-06-05T07:42:03.731Z,26.85
2018-06-05T07:44:38.829Z,28.17
2018-06-05T07:47:10.674Z,31.12
2018-06-05T07:49:44.747Z,27.73
2018-06-05T07:52:23.873Z,34.65
2018-06-05T07:55:02.040Z,28.52
2018-06-05T07:57:49.282Z,26.85
2018-06-05T08:00:26.349Z,28.02
2018-06-05T08:08:41.841Z,25.90
2018-06-05T08:11:24.043Z,25.35
2018-06-05T08:16:43.893Z,26.10
2018-06-05T08:19:28.397Z,24.85
2018-06-05T08:22:14.797Z,26.20
2018-06-05T08:24:43.996Z,25.37
2018-06-05T08:27:17.326Z,26.35
2018-06-05T08:29:51.205Z,25.95
2018-06-05T08:32:24.712Z,28.12
2018-06-05T08:34:57.148Z,27.55
2018-06-05T08:37:26.199Z,29.13
2018-06-05T08:39:55.239Z,27.17
2018-06-05T08:42:24.493Z,24.80
2018-06-05T08:44:53.449Z,25.65
2018-06-05T08:47:24.566Z,34.97
2018-06-05T08:49:54.718Z,29.40
2018-06-05T08:52:29.986Z,29.48
2018-06-05T08:54:59.006Z,32.10
2018-06-05T08:57:27.993Z,30.52
2018-06-05T09:00:07.566Z,29.87
2018-06-05T09:02:43.470Z,26.85
2018-06-05T09:05:15.126Z,26.90
2018-06-05T09:07:48.611Z,30.60
2018-06-05T09:10:22.130Z,27.23
2018-06-05T09:12:53.189Z,31.77
2018-06-05T09:15:22.231Z,28.55
2018-06-05T09:17:53.582Z,31.95
2018-06-05T09:20:35.094Z,28.60
2018-06-05T09:23:05.542Z,31.60
2018-06-05T09:28:34.318Z,27.27
2018-06-05T09:31:07.830Z,29.45
2018-06-05T09:33:39.237Z,28.42
2018-06-05T09:38:57.003Z,30.92
2018-06-05T09:41:31.127Z,31.08
2018-06-05T09:46:50.427Z,32.17
2018-06-05T09:52:06.928Z,26.40
2018-06-05T09:54:43.350Z,30.20
2018-06-05T09:57:13.716Z,35.17
2018-06-05T09:59:42.846Z,51.22
2018-06-05T10:02:11.740Z,31.55
2018-06-05T10:04:40.675Z,34.25
2018-06-05T10:07:13.386Z,39.20
2018-06-05T10:09:47.051Z,31.77
2018-06-05T10:12:20.886Z,27.42
2018-06-05T10:17:42.938Z,27.77
2018-06-05T10:20:14.472Z,29.00
2018-06-05T10:22:43.992Z,28.10
2018-06-05T10:25:15.916Z,26.50
2018-06-05T10:27:48.317Z,28.20
2018-06-05T10:30:17.873Z,24.60
2018-06-05T10:38:32.845Z,24.87
2018-06-05T10:43:58.257Z,24.77
2018-06-05T10:49:27.624Z,24.55
2018-06-05T10:51:58.492Z,26.00
2018-06-05T10:54:31.460Z,25.25
2018-06-05T10:57:12.865Z,25.27
2018-06-05T10:59:58.041Z,25.27
2018-06-05T11:02:27.038Z,24.70
2018-06-05T11:05:01.326Z,24.98
2018-06-05T11:07:32.800Z,27.55
2018-06-05T11:10:01.729Z,23.95
2018-06-05T11:15:19.559Z,25.27
2018-06-05T11:17:59.184Z,24.58
2018-06-05T11:23:17.536Z,25.05
2018-06-05T11:25:56.310Z,25.05
2018-06-05T11:28:28.617Z,26.12
2018-06-05T11:31:10.172Z,27.27
2018-06-05T11:33:43.397Z,27.02
2018-06-05T11:36:14.204Z,24.50
2018-06-05T11:38:53.441Z,25.95
2018-06-05T11:41:25.512Z,25.15
2018-06-05T11:44:07.763Z,26.73
2018-06-05T11:46:43.833Z,29.10
2018-06-05T11:49:16.949Z,24.00
2018-06-05T11:51:54.917Z,26.37
2018-06-05T11:54:35.728Z,27.43
2018-06-05T12:05:36.804Z,25.58
2018-06-05T12:11:01.420Z,27.50
2018-06-05T12:13:31.959Z,26.10
2018-06-05T12:16:04.349Z,26.35
2018-06-05T12:21:28.684Z,24.90
2018-06-05T12:29:48.151Z,25.62
2018-06-05T12:32:30.585Z,23.95
2018-06-05T12:35:01.200Z,21.87
2018-06-05T12:37:33.871Z,27.87
2018-06-05T12:40:04.253Z,27.73
2018-06-05T12:45:29.862Z,23.62
2018-06-05T12:48:02.305Z,22.75
2018-06-05T12:50:37.882Z,24.35
2018-06-05T12:53:06.820Z,24.02
2018-06-05T12:55:37.704Z,21.87
2018-06-05T12:58:16.304Z,21.27
2018-06-05T13:09:15.164Z,20.58
2018-06-05T13:14:37.251Z,22.25
2018-06-05T13:17:08.810Z,21.65
2018-06-05T13:19:47.393Z,21.87
2018-06-05T13:22:18.976Z,27.02
2018-06-05T13:24:53.553Z,20.90
2018-06-05T13:32:59.208Z,21.67
2018-06-05T13:35:36.239Z,19.95
2018-06-05T13:38:24.236Z,21.55
2018-06-05T13:40:59.025Z,23.45
2018-06-05T13:43:37.460Z,20.85
2018-06-05T13:51:58.495Z,20.67
2018-06-05T13:54:28.848Z,17.62
2018-06-05T13:59:47.949Z,22.75
2018-06-05T14:02:22.124Z,17.42
2018-06-05T14:07:52.085Z,20.02
2018-06-05T14:15:58.339Z,19.27
2018-06-05T14:18:30.321Z,18.52
2018-06-05T14:20:59.454Z,19.65
2018-06-05T14:26:19.241Z,17.02
2018-06-05T14:28:58.457Z,16.75
2018-06-05T14:34:18.708Z,18.23
2018-06-05T14:36:52.874Z,16.77
2018-06-05T14:39:23.171Z,16.92
2018-06-05T14:44:42.341Z,21.73
2018-06-05T14:50:01.497Z,16.48
2018-06-05T14:52:32.561Z,17.65
2018-06-05T14:55:05.376Z,16.73
2018-06-05T14:57:37.290Z,16.55
2018-06-05T15:00:08.595Z,15.73
2018-06-05T15:02:37.316Z,18.85
2018-06-05T15:05:05.994Z,18.73
2018-06-05T15:07:39.114Z,17.60
2018-06-05T15:10:07.741Z,16.75
2018-06-05T15:12:38.356Z,17.70
2018-06-05T15:15:07.367Z,16.60
2018-06-05T15:17:36.723Z,15.70
2018-06-05T15:23:02.294Z,16.35
2018-06-05T15:25:31.165Z,15.90
2018-06-05T15:28:00.270Z,17.77
2018-06-05T15:30:31.488Z,14.65
2018-06-05T15:35:48.035Z,16.52
2018-06-05T15:38:21.278Z,16.08
2018-06-05T15:40:50.766Z,14.35
2018-06-05T15:54:35.840Z,16.37
2018-06-05T15:57:05.274Z,17.58
2018-06-05T15:59:34.801Z,16.12
2018-06-05T16:02:09.190Z,14.65
2018-06-05T16:04:38.275Z,14.80
2018-06-05T16:07:11.605Z,13.52
2018-06-05T16:09:44.801Z,15.38
2018-06-05T16:18:01.923Z,13.98
2018-06-05T16:59:51.534Z,13.73
2018-06-05T17:02:20.430Z,12.37
2018-06-05T17:04:50.959Z,13.45
2018-06-05T17:07:24.742Z,12.30
2018-06-05T17:09:53.732Z,13.33
2018-06-05T17:12:22.626Z,13.25
2018-06-05T17:14:51.967Z,12.50
2018-06-05T17:17:25.679Z,12.73
2018-06-05T17:19:55.241Z,12.55
2018-06-05T17:22:26.557Z,13.00
2018-06-05T17:24:55.562Z,12.80
2018-06-05T17:27:24.726Z,13.03
2018-06-05T17:30:07.095Z,13.13
2018-06-05T17:32:39.800Z,12.18
2018-06-05T17:35:27.784Z,13.15
2018-06-05T17:38:02.510Z,13.18
2018-06-05T17:40:43.040Z,12.75
2018-06-05T17:43:13.443Z,12.15
2018-06-05T17:45:42.805Z,12.10
2018-06-05T17:48:11.661Z,12.00
2018-06-05T17:50:47.211Z,12.07
2018-06-05T17:53:28.462Z,11.57
2018-06-05T17:55:59.311Z,12.27
2018-06-05T17:58:31.128Z,12.37
2018-06-05T18:01:01.134Z,13.32
2018-06-05T18:03:33.594Z,13.55
2018-06-05T18:06:04.601Z,14.55
2018-06-05T18:08:33.669Z,14.48
2018-06-05T18:11:03.728Z,15.35
2018-06-05T18:13:33.931Z,14.43
2018-06-05T18:16:05.626Z,15.10
2018-06-05T18:18:38.494Z,15.55
2018-06-05T18:21:07.661Z,15.77
2018-06-05T18:23:36.744Z,15.30
2018-06-05T18:26:10.393Z,15.27
2018-06-05T18:28:39.362Z,15.70
2018-06-05T18:31:17.571Z,15.52
2018-06-05T18:33:52.523Z,15.32
2018-06-05T18:36:40.898Z,15.43
2018-06-05T18:39:12.191Z,14.82
2018-06-05T18:44:48.815Z,13.25
2018-06-05T18:50:11.554Z,14.65
2018-06-05T18:52:46.574Z,14.82
2018-06-05T18:58:14.217Z,20.05
2018-06-05T19:03:36.147Z,16.93
2018-06-05T19:20:04.136Z,14.40
2018-06-05T19:25:30.760Z,14.13
2018-06-05T20:42:58.823Z,17.05
2018-06-05T20:48:18.960Z,15.85
2018-06-05T20:53:38.890Z,19.08
2018-06-05T20:56:11.826Z,16.17
2018-06-05T20:58:46.116Z,20.40
2018-06-05T21:01:33.786Z,15.98
2018-06-05T21:06:55.706Z,22.85
2018-06-05T21:09:28.726Z,17.80
2018-06-05T21:17:39.062Z,18.33
2018-06-05T21:20:19.575Z,16.30
2018-06-05T21:22:52.424Z,13.45
2018-06-05T21:25:22.911Z,14.50
2018-06-05T21:27:53.139Z,15.13
2018-06-05T21:30:25.224Z,17.08
2018-06-05T21:32:55.441Z,17.25
2018-06-05T21:35:33.836Z,15.45
2018-06-05T21:43:43.339Z,15.57
2018-06-05T21:46:16.935Z,13.32
2018-06-05T21:57:12.788Z,14.43
2018-06-05T22:02:30.824Z,19.08
2018-06-05T22:05:18.882Z,13.93
2018-06-05T22:16:15.091Z,16.98
2018-06-05T22:21:37.802Z,18.83
2018-06-05T22:24:09.467Z,19.15
2018-06-05T22:35:06.638Z,20.45
2018-06-05T22:45:59.732Z,20.77
2018-06-05T22:59:46.543Z,23.00
2018-06-05T23:02:32.283Z,19.80
2018-06-05T23:07:57.128Z,19.45
2018-06-05T23:10:29.750Z,19.15
2018-06-05T23:13:00.783Z,20.48
2018-06-05T23:15:29.688Z,21.60
2018-06-05T23:18:00.636Z,19.40
2018-06-05T23:20:29.491Z,22.05
2018-06-05T23:22:58.751Z,19.70
2018-06-05T23:25:29.088Z,19.85
2018-06-05T23:28:00.782Z,20.15
2018-06-05T23:30:34.872Z,19.20
2018-06-05T23:33:07.854Z,17.40
2018-06-05T23:35:44.032Z,13.48
2018-06-05T23:38:16.005Z,14.63
2018-06-05T23:40:45.343Z,12.93
2018-06-05T23:43:17.337Z,13.18
2018-06-05T23:45:47.176Z,9.73
2018-06-05T23:48:18.052Z,10.07
2018-06-05T23:50:50.828Z,8.52
2018-06-05T23:56:08.710Z,7.90
2018-06-05T23:58:51.821Z,8.05
